sensor_id;sensor_type;location;lat;lon;timestamp;P1;durP1;ratioP1;P2;durP2;ratioP2
62574;SDS011;53112;45.602;11.904;2023-04-06T00:00:25;7.35;;;4.40;;
62574;SDS011;53112;45.602;11.904;2023-04-06T00:07:52;7.43;;;4.43;;
62574;SDS011;53112;45.602;11.904;2023-04-06T00:10:19;6.97;;;4.13;;
62574;SDS011;53112;45.602;11.904;2023-04-06T00:12:45;5.15;;;3.70;;
62574;SDS011;53112;45.602;11.904;2023-04-06T00:15:11;5.32;;;3.88;;
62574;SDS011;53112;45.602;11.904;2023-04-06T00:17:37;5.97;;;4.00;;
62574;SDS011;53112;45.602;11.904;2023-04-06T00:20:03;5.32;;;3.78;;
62574;SDS011;53112;45.602;11.904;2023-04-06T00:22:29;6.25;;;3.95;;
62574;SDS011;53112;45.602;11.904;2023-04-06T00:24:55;6.28;;;4.13;;
62574;SDS011;53112;45.602;11.904;2023-04-06T00:27:21;7.80;;;4.45;;
62574;SDS011;53112;45.602;11.904;2023-04-06T00:29:47;7.05;;;4.43;;
62574;SDS011;53112;45.602;11.904;2023-04-06T00:32:13;5.93;;;4.10;;
62574;SDS011;53112;45.602;11.904;2023-04-06T00:34:39;6.55;;;4.50;;
62574;SDS011;53112;45.602;11.904;2023-04-06T00:39:38;5.90;;;4.07;;
62574;SDS011;53112;45.602;11.904;2023-04-06T00:42:09;7.03;;;4.43;;
62574;SDS011;53112;45.602;11.904;2023-04-06T00:47:10;7.07;;;4.88;;
62574;SDS011;53112;45.602;11.904;2023-04-06T00:54:38;7.32;;;4.80;;
62574;SDS011;53112;45.602;11.904;2023-04-06T00:59:34;7.65;;;4.55;;
62574;SDS011;53112;45.602;11.904;2023-04-06T01:02:00;6.38;;;4.50;;
62574;SDS011;53112;45.602;11.904;2023-04-06T01:09:37;6.55;;;4.00;;
62574;SDS011;53112;45.602;11.904;2023-04-06T01:12:03;6.28;;;4.40;;
62574;SDS011;53112;45.602;11.904;2023-04-06T01:14:28;6.45;;;4.25;;
62574;SDS011;53112;45.602;11.904;2023-04-06T01:16:58;6.90;;;4.60;;
62574;SDS011;53112;45.602;11.904;2023-04-06T01:21:54;6.77;;;4.63;;
62574;SDS011;53112;45.602;11.904;2023-04-06T01:24:21;6.80;;;4.72;;
62574;SDS011;53112;45.602;11.904;2023-04-06T01:26:46;7.50;;;4.97;;
62574;SDS011;53112;45.602;11.904;2023-04-06T01:29:12;6.68;;;4.53;;
62574;SDS011;53112;45.602;11.904;2023-04-06T01:31:38;6.65;;;4.55;;
62574;SDS011;53112;45.602;11.904;2023-04-06T01:39:08;6.97;;;4.65;;
62574;SDS011;53112;45.602;11.904;2023-04-06T01:41:34;6.40;;;4.18;;
62574;SDS011;53112;45.602;11.904;2023-04-06T01:44:00;6.00;;;4.20;;
62574;SDS011;53112;45.602;11.904;2023-04-06T01:46:26;7.72;;;4.82;;
62574;SDS011;53112;45.602;11.904;2023-04-06T01:48:52;7.43;;;4.47;;
62574;SDS011;53112;45.602;11.904;2023-04-06T01:51:18;7.00;;;4.32;;
62574;SDS011;53112;45.602;11.904;2023-04-06T01:53:44;6.88;;;4.50;;
62574;SDS011;53112;45.602;11.904;2023-04-06T01:56:10;6.57;;;4.40;;
62574;SDS011;53112;45.602;11.904;2023-04-06T01:58:35;6.05;;;4.50;;
62574;SDS011;53112;45.602;11.904;2023-04-06T02:03:26;6.30;;;4.53;;
62574;SDS011;53112;45.602;11.904;2023-04-06T02:05:52;7.25;;;4.60;;
62574;SDS011;53112;45.602;11.904;2023-04-06T02:08:18;6.13;;;4.40;;
62574;SDS011;53112;45.602;11.904;2023-04-06T02:10:47;6.70;;;4.68;;
62574;SDS011;53112;45.602;11.904;2023-04-06T02:13:13;6.82;;;4.72;;
62574;SDS011;53112;45.602;11.904;2023-04-06T02:15:39;7.00;;;4.90;;
62574;SDS011;53112;45.602;11.904;2023-04-06T02:20:40;6.05;;;4.50;;
62574;SDS011;53112;45.602;11.904;2023-04-06T02:23:06;8.73;;;4.30;;
62574;SDS011;53112;45.602;11.904;2023-04-06T02:25:31;6.78;;;4.55;;
62574;SDS011;53112;45.602;11.904;2023-04-06T02:27:58;6.55;;;4.50;;
62574;SDS011;53112;45.602;11.904;2023-04-06T02:30:24;6.55;;;4.65;;
62574;SDS011;53112;45.602;11.904;2023-04-06T02:32:50;7.40;;;4.43;;
62574;SDS011;53112;45.602;11.904;2023-04-06T02:37:47;6.28;;;4.22;;
62574;SDS011;53112;45.602;11.904;2023-04-06T02:40:13;7.47;;;4.30;;
62574;SDS011;53112;45.602;11.904;2023-04-06T02:42:39;7.20;;;4.60;;
62574;SDS011;53112;45.602;11.904;2023-04-06T02:45:05;6.28;;;4.05;;
62574;SDS011;53112;45.602;11.904;2023-04-06T02:47:32;6.97;;;4.40;;
62574;SDS011;53112;45.602;11.904;2023-04-06T02:49:58;6.40;;;4.40;;
62574;SDS011;53112;45.602;11.904;2023-04-06T02:52:24;5.90;;;4.35;;
62574;SDS011;53112;45.602;11.904;2023-04-06T02:57:23;6.43;;;4.65;;
62574;SDS011;53112;45.602;11.904;2023-04-06T02:59:49;7.25;;;4.60;;
62574;SDS011;53112;45.602;11.904;2023-04-06T03:04:44;7.22;;;4.75;;
62574;SDS011;53112;45.602;11.904;2023-04-06T03:07:10;7.50;;;4.65;;
62574;SDS011;53112;45.602;11.904;2023-04-06T03:12:07;5.93;;;4.03;;
62574;SDS011;53112;45.602;11.904;2023-04-06T03:14:33;6.63;;;4.10;;
62574;SDS011;53112;45.602;11.904;2023-04-06T03:16:59;5.93;;;4.22;;
62574;SDS011;53112;45.602;11.904;2023-04-06T03:19:25;6.88;;;4.57;;
62574;SDS011;53112;45.602;11.904;2023-04-06T03:21:51;6.13;;;4.30;;
62574;SDS011;53112;45.602;11.904;2023-04-06T03:26:46;5.93;;;4.15;;
62574;SDS011;53112;45.602;11.904;2023-04-06T03:29:12;6.63;;;4.22;;
62574;SDS011;53112;45.602;11.904;2023-04-06T03:31:38;5.70;;;4.22;;
62574;SDS011;53112;45.602;11.904;2023-04-06T03:34:07;6.15;;;4.32;;
62574;SDS011;53112;45.602;11.904;2023-04-06T03:39:07;5.63;;;3.75;;
62574;SDS011;53112;45.602;11.904;2023-04-06T03:41:33;6.20;;;4.18;;
62574;SDS011;53112;45.602;11.904;2023-04-06T03:43:59;6.60;;;4.03;;
62574;SDS011;53112;45.602;11.904;2023-04-06T03:46:25;4.90;;;3.80;;
62574;SDS011;53112;45.602;11.904;2023-04-06T03:53:55;5.13;;;3.60;;
62574;SDS011;53112;45.602;11.904;2023-04-06T03:56:21;5.25;;;3.70;;
62574;SDS011;53112;45.602;11.904;2023-04-06T04:01:17;4.88;;;3.70;;
62574;SDS011;53112;45.602;11.904;2023-04-06T04:03:45;5.70;;;3.90;;
62574;SDS011;53112;45.602;11.904;2023-04-06T04:08:48;5.37;;;3.70;;
62574;SDS011;53112;45.602;11.904;2023-04-06T04:11:13;5.65;;;3.80;;
62574;SDS011;53112;45.602;11.904;2023-04-06T04:13:40;5.70;;;3.67;;
62574;SDS011;53112;45.602;11.904;2023-04-06T04:16:06;5.40;;;3.90;;
62574;SDS011;53112;45.602;11.904;2023-04-06T04:18:32;6.20;;;4.30;;
62574;SDS011;53112;45.602;11.904;2023-04-06T04:20:58;6.50;;;4.40;;
62574;SDS011;53112;45.602;11.904;2023-04-06T04:23:24;7.03;;;4.40;;
62574;SDS011;53112;45.602;11.904;2023-04-06T04:25:50;5.85;;;4.03;;
62574;SDS011;53112;45.602;11.904;2023-04-06T04:28:16;6.50;;;4.25;;
62574;SDS011;53112;45.602;11.904;2023-04-06T04:30:42;6.45;;;4.50;;
62574;SDS011;53112;45.602;11.904;2023-04-06T04:33:08;5.88;;;4.15;;
62574;SDS011;53112;45.602;11.904;2023-04-06T04:35:33;7.70;;;4.88;;
62574;SDS011;53112;45.602;11.904;2023-04-06T04:37:59;6.75;;;4.40;;
62574;SDS011;53112;45.602;11.904;2023-04-06T04:42:58;6.93;;;4.60;;
62574;SDS011;53112;45.602;11.904;2023-04-06T04:45:27;6.55;;;4.55;;
62574;SDS011;53112;45.602;11.904;2023-04-06T04:47:53;6.30;;;4.35;;
62574;SDS011;53112;45.602;11.904;2023-04-06T04:50:19;6.50;;;4.78;;
62574;SDS011;53112;45.602;11.904;2023-04-06T04:52:45;6.55;;;4.45;;
62574;SDS011;53112;45.602;11.904;2023-04-06T04:57:42;6.20;;;4.40;;
62574;SDS011;53112;45.602;11.904;2023-04-06T05:02:34;5.85;;;4.05;;
62574;SDS011;53112;45.602;11.904;2023-04-06T05:04:59;7.53;;;4.35;;
62574;SDS011;53112;45.602;11.904;2023-04-06T05:07:25;6.45;;;4.10;;
62574;SDS011;53112;45.602;11.904;2023-04-06T05:09:51;7.47;;;4.10;;
62574;SDS011;53112;45.602;11.904;2023-04-06T05:12:18;6.55;;;4.47;;
62574;SDS011;53112;45.602;11.904;2023-04-06T05:14:44;5.88;;;4.13;;
62574;SDS011;53112;45.602;11.904;2023-04-06T05:17:10;6.18;;;4.20;;
62574;SDS011;53112;45.602;11.904;2023-04-06T05:19:36;5.35;;;3.90;;
62574;SDS011;53112;45.602;11.904;2023-04-06T05:22:02;5.43;;;3.70;;
62574;SDS011;53112;45.602;11.904;2023-04-06T05:24:28;6.20;;;4.00;;
62574;SDS011;53112;45.602;11.904;2023-04-06T05:26:54;5.50;;;4.00;;
62574;SDS011;53112;45.602;11.904;2023-04-06T05:29:20;4.93;;;3.72;;
62574;SDS011;53112;45.602;11.904;2023-04-06T05:31:46;5.60;;;4.00;;
62574;SDS011;53112;45.602;11.904;2023-04-06T05:34:12;5.45;;;3.80;;
62574;SDS011;53112;45.602;11.904;2023-04-06T05:36:38;5.20;;;3.70;;
62574;SDS011;53112;45.602;11.904;2023-04-06T05:39:05;6.05;;;3.97;;
62574;SDS011;53112;45.602;11.904;2023-04-06T05:41:32;5.38;;;3.83;;
62574;SDS011;53112;45.602;11.904;2023-04-06T05:43:58;5.05;;;3.55;;
62574;SDS011;53112;45.602;11.904;2023-04-06T05:46:24;6.97;;;3.70;;
62574;SDS011;53112;45.602;11.904;2023-04-06T05:48:50;5.82;;;3.60;;
62574;SDS011;53112;45.602;11.904;2023-04-06T05:51:15;5.50;;;3.90;;
62574;SDS011;53112;45.602;11.904;2023-04-06T05:53:41;5.20;;;3.47;;
62574;SDS011;53112;45.602;11.904;2023-04-06T05:56:10;6.22;;;3.55;;
62574;SDS011;53112;45.602;11.904;2023-04-06T05:58:36;5.47;;;3.60;;
62574;SDS011;53112;45.602;11.904;2023-04-06T06:01:02;5.82;;;3.40;;
62574;SDS011;53112;45.602;11.904;2023-04-06T06:03:30;5.22;;;3.45;;
62574;SDS011;53112;45.602;11.904;2023-04-06T06:06:01;4.97;;;3.38;;
62574;SDS011;53112;45.602;11.904;2023-04-06T06:08:28;4.75;;;3.55;;
62574;SDS011;53112;45.602;11.904;2023-04-06T06:10:55;5.95;;;3.63;;
62574;SDS011;53112;45.602;11.904;2023-04-06T06:13:21;5.00;;;3.40;;
62574;SDS011;53112;45.602;11.904;2023-04-06T06:15:48;4.70;;;3.30;;
62574;SDS011;53112;45.602;11.904;2023-04-06T06:18:15;5.28;;;3.50;;
62574;SDS011;53112;45.602;11.904;2023-04-06T06:20:41;5.90;;;3.35;;
62574;SDS011;53112;45.602;11.904;2023-04-06T06:23:07;5.28;;;3.47;;
62574;SDS011;53112;45.602;11.904;2023-04-06T06:25:33;5.65;;;3.45;;
62574;SDS011;53112;45.602;11.904;2023-04-06T06:27:59;7.90;;;4.03;;
62574;SDS011;53112;45.602;11.904;2023-04-06T06:30:25;7.68;;;3.70;;
62574;SDS011;53112;45.602;11.904;2023-04-06T06:32:51;4.90;;;3.40;;
62574;SDS011;53112;45.602;11.904;2023-04-06T06:35:17;4.55;;;3.30;;
62574;SDS011;53112;45.602;11.904;2023-04-06T06:40:14;5.00;;;3.38;;
62574;SDS011;53112;45.602;11.904;2023-04-06T06:45:12;5.10;;;3.33;;
62574;SDS011;53112;45.602;11.904;2023-04-06T06:47:38;5.47;;;3.47;;
62574;SDS011;53112;45.602;11.904;2023-04-06T06:52:33;5.60;;;3.30;;
62574;SDS011;53112;45.602;11.904;2023-04-06T06:54:59;5.10;;;3.05;;
62574;SDS011;53112;45.602;11.904;2023-04-06T06:57:25;5.25;;;3.60;;
62574;SDS011;53112;45.602;11.904;2023-04-06T06:59:51;7.82;;;3.40;;
62574;SDS011;53112;45.602;11.904;2023-04-06T07:02:17;4.80;;;3.22;;
62574;SDS011;53112;45.602;11.904;2023-04-06T07:04:43;6.40;;;3.45;;
62574;SDS011;53112;45.602;11.904;2023-04-06T07:09:40;5.68;;;3.63;;
62574;SDS011;53112;45.602;11.904;2023-04-06T07:12:06;5.18;;;3.50;;
62574;SDS011;53112;45.602;11.904;2023-04-06T07:14:32;5.30;;;3.38;;
62574;SDS011;53112;45.602;11.904;2023-04-06T07:16:58;5.05;;;3.20;;
62574;SDS011;53112;45.602;11.904;2023-04-06T07:19:24;4.90;;;3.20;;
62574;SDS011;53112;45.602;11.904;2023-04-06T07:21:50;5.32;;;3.40;;
62574;SDS011;53112;45.602;11.904;2023-04-06T07:24:16;5.80;;;3.38;;
62574;SDS011;53112;45.602;11.904;2023-04-06T07:26:42;5.15;;;3.22;;
62574;SDS011;53112;45.602;11.904;2023-04-06T07:29:08;5.03;;;3.67;;
62574;SDS011;53112;45.602;11.904;2023-04-06T07:31:34;5.50;;;3.63;;
62574;SDS011;53112;45.602;11.904;2023-04-06T07:34:06;7.15;;;3.50;;
62574;SDS011;53112;45.602;11.904;2023-04-06T07:36:32;4.32;;;3.17;;
62574;SDS011;53112;45.602;11.904;2023-04-06T07:38:58;5.00;;;3.00;;
62574;SDS011;53112;45.602;11.904;2023-04-06T07:41:24;3.88;;;2.88;;
62574;SDS011;53112;45.602;11.904;2023-04-06T07:43:49;6.15;;;3.50;;
62574;SDS011;53112;45.602;11.904;2023-04-06T07:46:15;6.47;;;3.30;;
62574;SDS011;53112;45.602;11.904;2023-04-06T07:48:41;6.25;;;3.42;;
62574;SDS011;53112;45.602;11.904;2023-04-06T07:51:07;4.43;;;3.00;;
62574;SDS011;53112;45.602;11.904;2023-04-06T07:53:34;4.43;;;3.30;;
62574;SDS011;53112;45.602;11.904;2023-04-06T07:56:00;5.03;;;3.28;;
62574;SDS011;53112;45.602;11.904;2023-04-06T07:58:25;5.25;;;3.30;;
62574;SDS011;53112;45.602;11.904;2023-04-06T08:00:51;5.00;;;2.92;;
62574;SDS011;53112;45.602;11.904;2023-04-06T08:03:17;5.68;;;3.30;;
62574;SDS011;53112;45.602;11.904;2023-04-06T08:05:46;4.07;;;2.97;;
62574;SDS011;53112;45.602;11.904;2023-04-06T08:08:12;4.25;;;2.80;;
62574;SDS011;53112;45.602;11.904;2023-04-06T08:10:38;4.82;;;3.10;;
62574;SDS011;53112;45.602;11.904;2023-04-06T08:13:04;5.90;;;3.10;;
62574;SDS011;53112;45.602;11.904;2023-04-06T08:15:29;5.18;;;3.20;;
62574;SDS011;53112;45.602;11.904;2023-04-06T08:17:55;4.53;;;3.10;;
62574;SDS011;53112;45.602;11.904;2023-04-06T08:20:22;4.55;;;2.80;;
62574;SDS011;53112;45.602;11.904;2023-04-06T08:22:48;4.78;;;3.08;;
62574;SDS011;53112;45.602;11.904;2023-04-06T08:25:14;4.63;;;3.17;;
62574;SDS011;53112;45.602;11.904;2023-04-06T08:27:40;5.35;;;3.25;;
62574;SDS011;53112;45.602;11.904;2023-04-06T08:30:06;4.57;;;2.95;;
62574;SDS011;53112;45.602;11.904;2023-04-06T08:32:32;4.75;;;3.10;;
62574;SDS011;53112;45.602;11.904;2023-04-06T08:34:58;5.63;;;3.30;;
62574;SDS011;53112;45.602;11.904;2023-04-06T08:37:24;3.72;;;2.95;;
62574;SDS011;53112;45.602;11.904;2023-04-06T08:39:50;4.63;;;3.03;;
62574;SDS011;53112;45.602;11.904;2023-04-06T08:42:18;3.58;;;2.80;;
62574;SDS011;53112;45.602;11.904;2023-04-06T08:44:47;4.30;;;2.97;;
62574;SDS011;53112;45.602;11.904;2023-04-06T08:47:14;6.07;;;2.88;;
62574;SDS011;53112;45.602;11.904;2023-04-06T08:49:40;4.85;;;2.80;;
62574;SDS011;53112;45.602;11.904;2023-04-06T08:52:09;4.88;;;3.20;;
62574;SDS011;53112;45.602;11.904;2023-04-06T08:54:36;4.25;;;2.85;;
62574;SDS011;53112;45.602;11.904;2023-04-06T08:57:03;4.47;;;2.90;;
62574;SDS011;53112;45.602;11.904;2023-04-06T08:59:31;4.22;;;2.97;;
62574;SDS011;53112;45.602;11.904;2023-04-06T09:01:57;5.82;;;2.90;;
62574;SDS011;53112;45.602;11.904;2023-04-06T09:04:27;5.20;;;2.90;;
62574;SDS011;53112;45.602;11.904;2023-04-06T09:06:53;4.25;;;2.80;;
62574;SDS011;53112;45.602;11.904;2023-04-06T09:09:18;5.07;;;2.60;;
62574;SDS011;53112;45.602;11.904;2023-04-06T09:11:46;4.00;;;2.70;;
62574;SDS011;53112;45.602;11.904;2023-04-06T09:14:14;4.65;;;2.80;;
62574;SDS011;53112;45.602;11.904;2023-04-06T09:16:42;4.15;;;2.65;;
62574;SDS011;53112;45.602;11.904;2023-04-06T09:19:09;4.72;;;2.92;;
62574;SDS011;53112;45.602;11.904;2023-04-06T09:21:35;4.72;;;2.83;;
62574;SDS011;53112;45.602;11.904;2023-04-06T09:24:02;4.13;;;2.90;;
62574;SDS011;53112;45.602;11.904;2023-04-06T09:26:29;4.65;;;3.05;;
62574;SDS011;53112;45.602;11.904;2023-04-06T09:28:57;3.78;;;2.70;;
62574;SDS011;53112;45.602;11.904;2023-04-06T09:31:25;4.15;;;2.70;;
62574;SDS011;53112;45.602;11.904;2023-04-06T09:33:53;4.22;;;2.60;;
62574;SDS011;53112;45.602;11.904;2023-04-06T09:36:20;3.72;;;2.60;;
62574;SDS011;53112;45.602;11.904;2023-04-06T09:38:56;3.78;;;2.70;;
62574;SDS011;53112;45.602;11.904;2023-04-06T09:41:30;4.43;;;2.70;;
62574;SDS011;53112;45.602;11.904;2023-04-06T09:44:07;5.18;;;2.35;;
62574;SDS011;53112;45.602;11.904;2023-04-06T09:46:35;4.07;;;2.50;;
62574;SDS011;53112;45.602;11.904;2023-04-06T09:49:08;3.38;;;2.50;;
62574;SDS011;53112;45.602;11.904;2023-04-06T09:51:39;4.47;;;2.63;;
62574;SDS011;53112;45.602;11.904;2023-04-06T09:54:06;3.63;;;2.58;;
62574;SDS011;53112;45.602;11.904;2023-04-06T09:56:53;5.07;;;2.60;;
62574;SDS011;53112;45.602;11.904;2023-04-06T10:02:48;4.53;;;2.70;;
62574;SDS011;53112;45.602;11.904;2023-04-06T10:05:29;6.68;;;3.20;;
62574;SDS011;53112;45.602;11.904;2023-04-06T10:08:17;5.28;;;2.90;;
62574;SDS011;53112;45.602;11.904;2023-04-06T10:10:46;5.70;;;3.25;;
62574;SDS011;53112;45.602;11.904;2023-04-06T10:13:12;4.22;;;2.83;;
62574;SDS011;53112;45.602;11.904;2023-04-06T10:15:38;4.78;;;3.05;;
62574;SDS011;53112;45.602;11.904;2023-04-06T10:18:07;5.13;;;3.10;;
62574;SDS011;53112;45.602;11.904;2023-04-06T10:25:54;3.92;;;2.55;;
62574;SDS011;53112;45.602;11.904;2023-04-06T10:28:25;5.82;;;2.70;;
62574;SDS011;53112;45.602;11.904;2023-04-06T10:30:58;4.95;;;2.95;;
62574;SDS011;53112;45.602;11.904;2023-04-06T10:33:26;4.30;;;2.90;;
62574;SDS011;53112;45.602;11.904;2023-04-06T10:35:53;7.63;;;3.15;;
62574;SDS011;53112;45.602;11.904;2023-04-06T10:38:20;4.78;;;3.40;;
62574;SDS011;53112;45.602;11.904;2023-04-06T10:40:48;6.57;;;3.53;;
62574;SDS011;53112;45.602;11.904;2023-04-06T10:43:18;5.13;;;3.20;;
62574;SDS011;53112;45.602;11.904;2023-04-06T10:45:54;6.35;;;3.45;;
62574;SDS011;53112;45.602;11.904;2023-04-06T10:48:21;7.53;;;3.60;;
62574;SDS011;53112;45.602;11.904;2023-04-06T10:50:51;6.25;;;3.30;;
62574;SDS011;53112;45.602;11.904;2023-04-06T10:53:24;4.93;;;2.90;;
62574;SDS011;53112;45.602;11.904;2023-04-06T10:55:52;5.53;;;3.17;;
62574;SDS011;53112;45.602;11.904;2023-04-06T10:58:19;5.93;;;4.10;;
62574;SDS011;53112;45.602;11.904;2023-04-06T11:00:46;5.07;;;3.33;;
62574;SDS011;53112;45.602;11.904;2023-04-06T11:03:13;4.57;;;3.00;;
62574;SDS011;53112;45.602;11.904;2023-04-06T11:05:46;5.97;;;3.22;;
62574;SDS011;53112;45.602;11.904;2023-04-06T11:08:22;5.32;;;3.40;;
62574;SDS011;53112;45.602;11.904;2023-04-06T11:10:48;7.50;;;3.10;;
62574;SDS011;53112;45.602;11.904;2023-04-06T11:13:14;4.47;;;2.85;;
62574;SDS011;53112;45.602;11.904;2023-04-06T11:15:40;4.07;;;2.75;;
62574;SDS011;53112;45.602;11.904;2023-04-06T11:18:06;4.63;;;2.47;;
62574;SDS011;53112;45.602;11.904;2023-04-06T11:20:32;4.85;;;2.50;;
62574;SDS011;53112;45.602;11.904;2023-04-06T11:22:58;4.75;;;2.92;;
62574;SDS011;53112;45.602;11.904;2023-04-06T11:25:24;6.20;;;3.30;;
62574;SDS011;53112;45.602;11.904;2023-04-06T11:27:53;5.63;;;3.60;;
62574;SDS011;53112;45.602;11.904;2023-04-06T11:30:19;5.07;;;3.42;;
62574;SDS011;53112;45.602;11.904;2023-04-06T11:32:45;6.05;;;3.65;;
62574;SDS011;53112;45.602;11.904;2023-04-06T11:35:12;4.68;;;2.88;;
62574;SDS011;53112;45.602;11.904;2023-04-06T11:37:46;4.13;;;3.00;;
62574;SDS011;53112;45.602;11.904;2023-04-06T11:40:13;5.50;;;3.08;;
62574;SDS011;53112;45.602;11.904;2023-04-06T11:42:39;5.97;;;3.10;;
62574;SDS011;53112;45.602;11.904;2023-04-06T11:45:06;4.88;;;2.97;;
62574;SDS011;53112;45.602;11.904;2023-04-06T11:47:34;5.78;;;3.63;;
62574;SDS011;53112;45.602;11.904;2023-04-06T11:52:34;6.15;;;2.88;;
62574;SDS011;53112;45.602;11.904;2023-04-06T11:55:09;3.75;;;2.63;;
62574;SDS011;53112;45.602;11.904;2023-04-06T11:57:37;4.90;;;3.30;;
62574;SDS011;53112;45.602;11.904;2023-04-06T12:00:03;6.15;;;3.50;;
62574;SDS011;53112;45.602;11.904;2023-04-06T12:02:29;5.50;;;3.28;;
62574;SDS011;53112;45.602;11.904;2023-04-06T12:04:57;6.57;;;3.90;;
62574;SDS011;53112;45.602;11.904;2023-04-06T12:07:23;5.35;;;3.40;;
62574;SDS011;53112;45.602;11.904;2023-04-06T12:09:49;5.03;;;3.10;;
62574;SDS011;53112;45.602;11.904;2023-04-06T12:12:15;6.72;;;3.03;;
62574;SDS011;53112;45.602;11.904;2023-04-06T12:14:41;4.03;;;2.70;;
62574;SDS011;53112;45.602;11.904;2023-04-06T12:17:07;3.38;;;2.50;;
62574;SDS011;53112;45.602;11.904;2023-04-06T12:19:33;4.07;;;2.65;;
62574;SDS011;53112;45.602;11.904;2023-04-06T12:21:59;5.30;;;2.90;;
62574;SDS011;53112;45.602;11.904;2023-04-06T12:24:25;4.80;;;3.00;;
62574;SDS011;53112;45.602;11.904;2023-04-06T12:26:52;6.25;;;3.00;;
62574;SDS011;53112;45.602;11.904;2023-04-06T12:29:18;5.07;;;3.20;;
62574;SDS011;53112;45.602;11.904;2023-04-06T12:34:20;5.38;;;3.13;;
62574;SDS011;53112;45.602;11.904;2023-04-06T12:36:46;6.20;;;3.63;;
62574;SDS011;53112;45.602;11.904;2023-04-06T12:39:12;3.97;;;2.80;;
62574;SDS011;53112;45.602;11.904;2023-04-06T12:41:38;5.10;;;2.88;;
62574;SDS011;53112;45.602;11.904;2023-04-06T12:44:07;4.32;;;2.55;;
62574;SDS011;53112;45.602;11.904;2023-04-06T12:46:32;4.18;;;2.63;;
62574;SDS011;53112;45.602;11.904;2023-04-06T12:51:32;5.97;;;3.33;;
62574;SDS011;53112;45.602;11.904;2023-04-06T12:53:58;6.50;;;4.45;;
62574;SDS011;53112;45.602;11.904;2023-04-06T12:56:24;5.18;;;3.22;;
62574;SDS011;53112;45.602;11.904;2023-04-06T12:58:50;5.95;;;3.60;;
62574;SDS011;53112;45.602;11.904;2023-04-06T13:01:17;5.55;;;3.42;;
62574;SDS011;53112;45.602;11.904;2023-04-06T13:03:43;7.18;;;3.65;;
62574;SDS011;53112;45.602;11.904;2023-04-06T13:08:41;4.82;;;3.10;;
62574;SDS011;53112;45.602;11.904;2023-04-06T13:16:10;4.05;;;2.90;;
62574;SDS011;53112;45.602;11.904;2023-04-06T13:18:36;6.43;;;3.75;;
62574;SDS011;53112;45.602;11.904;2023-04-06T13:21:07;5.57;;;3.58;;
62574;SDS011;53112;45.602;11.904;2023-04-06T13:23:33;4.88;;;3.45;;
62574;SDS011;53112;45.602;11.904;2023-04-06T13:26:01;6.13;;;3.72;;
62574;SDS011;53112;45.602;11.904;2023-04-06T13:28:29;5.97;;;4.20;;
62574;SDS011;53112;45.602;11.904;2023-04-06T13:30:57;5.35;;;3.35;;
62574;SDS011;53112;45.602;11.904;2023-04-06T13:33:25;4.32;;;2.97;;
62574;SDS011;53112;45.602;11.904;2023-04-06T13:35:51;4.88;;;3.00;;
62574;SDS011;53112;45.602;11.904;2023-04-06T13:38:18;6.30;;;3.83;;
62574;SDS011;53112;45.602;11.904;2023-04-06T13:40:44;6.68;;;3.70;;
62574;SDS011;53112;45.602;11.904;2023-04-06T13:43:10;6.20;;;3.95;;
62574;SDS011;53112;45.602;11.904;2023-04-06T13:45:36;6.05;;;4.10;;
62574;SDS011;53112;45.602;11.904;2023-04-06T13:48:03;7.05;;;4.22;;
62574;SDS011;53112;45.602;11.904;2023-04-06T13:50:29;6.95;;;4.95;;
62574;SDS011;53112;45.602;11.904;2023-04-06T13:52:55;6.50;;;4.15;;
62574;SDS011;53112;45.602;11.904;2023-04-06T13:55:21;5.45;;;3.88;;
62574;SDS011;53112;45.602;11.904;2023-04-06T13:57:50;5.43;;;3.88;;
62574;SDS011;53112;45.602;11.904;2023-04-06T14:00:16;5.88;;;3.75;;
62574;SDS011;53112;45.602;11.904;2023-04-06T14:02:42;6.53;;;3.28;;
62574;SDS011;53112;45.602;11.904;2023-04-06T14:07:34;6.97;;;3.55;;
62574;SDS011;53112;45.602;11.904;2023-04-06T14:10:00;6.88;;;3.95;;
62574;SDS011;53112;45.602;11.904;2023-04-06T14:12:26;6.25;;;2.97;;
62574;SDS011;53112;45.602;11.904;2023-04-06T14:14:52;7.57;;;4.30;;
62574;SDS011;53112;45.602;11.904;2023-04-06T14:17:18;7.00;;;4.25;;
62574;SDS011;53112;45.602;11.904;2023-04-06T14:19:43;5.60;;;4.18;;
62574;SDS011;53112;45.602;11.904;2023-04-06T14:22:09;6.20;;;4.28;;
62574;SDS011;53112;45.602;11.904;2023-04-06T14:27:04;10.85;;;4.93;;
62574;SDS011;53112;45.602;11.904;2023-04-06T14:29:30;7.38;;;4.47;;
62574;SDS011;53112;45.602;11.904;2023-04-06T14:31:56;7.32;;;4.78;;
62574;SDS011;53112;45.602;11.904;2023-04-06T14:34:25;9.13;;;4.72;;
62574;SDS011;53112;45.602;11.904;2023-04-06T14:36:52;6.93;;;4.65;;
62574;SDS011;53112;45.602;11.904;2023-04-06T14:39:18;7.40;;;4.90;;
62574;SDS011;53112;45.602;11.904;2023-04-06T14:41:44;7.28;;;3.83;;
62574;SDS011;53112;45.602;11.904;2023-04-06T14:46:39;7.25;;;4.55;;
62574;SDS011;53112;45.602;11.904;2023-04-06T14:49:06;6.03;;;3.90;;
62574;SDS011;53112;45.602;11.904;2023-04-06T14:51:33;5.15;;;3.78;;
62574;SDS011;53112;45.602;11.904;2023-04-06T14:54:00;6.35;;;3.38;;
62574;SDS011;53112;45.602;11.904;2023-04-06T14:56:27;4.97;;;3.25;;
62574;SDS011;53112;45.602;11.904;2023-04-06T14:58:56;6.88;;;3.88;;
62574;SDS011;53112;45.602;11.904;2023-04-06T15:01:28;9.10;;;4.35;;
62574;SDS011;53112;45.602;11.904;2023-04-06T15:03:54;6.78;;;4.20;;
62574;SDS011;53112;45.602;11.904;2023-04-06T15:06:20;5.90;;;3.88;;
62574;SDS011;53112;45.602;11.904;2023-04-06T15:08:47;6.78;;;4.85;;
62574;SDS011;53112;45.602;11.904;2023-04-06T15:11:14;7.55;;;5.00;;
62574;SDS011;53112;45.602;11.904;2023-04-06T15:13:40;7.43;;;4.30;;
62574;SDS011;53112;45.602;11.904;2023-04-06T15:16:06;6.53;;;4.20;;
62574;SDS011;53112;45.602;11.904;2023-04-06T15:18:33;7.97;;;5.05;;
62574;SDS011;53112;45.602;11.904;2023-04-06T15:21:00;6.88;;;4.20;;
62574;SDS011;53112;45.602;11.904;2023-04-06T15:23:26;6.82;;;4.25;;
62574;SDS011;53112;45.602;11.904;2023-04-06T15:25:55;5.18;;;3.47;;
62574;SDS011;53112;45.602;11.904;2023-04-06T15:28:21;6.68;;;3.28;;
62574;SDS011;53112;45.602;11.904;2023-04-06T15:30:47;7.05;;;4.18;;
62574;SDS011;53112;45.602;11.904;2023-04-06T15:33:13;7.35;;;4.20;;
62574;SDS011;53112;45.602;11.904;2023-04-06T15:35:39;8.82;;;4.40;;
62574;SDS011;53112;45.602;11.904;2023-04-06T15:38:10;7.75;;;4.40;;
62574;SDS011;53112;45.602;11.904;2023-04-06T15:40:42;5.35;;;3.95;;
62574;SDS011;53112;45.602;11.904;2023-04-06T15:43:09;6.25;;;4.00;;
62574;SDS011;53112;45.602;11.904;2023-04-06T15:45:36;8.65;;;4.95;;
62574;SDS011;53112;45.602;11.904;2023-04-06T15:48:02;5.20;;;3.40;;
62574;SDS011;53112;45.602;11.904;2023-04-06T15:50:28;6.82;;;4.72;;
62574;SDS011;53112;45.602;11.904;2023-04-06T15:52:53;7.45;;;4.32;;
62574;SDS011;53112;45.602;11.904;2023-04-06T15:55:19;6.93;;;3.92;;
62574;SDS011;53112;45.602;11.904;2023-04-06T15:57:45;6.60;;;4.30;;
62574;SDS011;53112;45.602;11.904;2023-04-06T16:00:11;7.82;;;4.60;;
62574;SDS011;53112;45.602;11.904;2023-04-06T16:02:39;7.53;;;4.65;;
62574;SDS011;53112;45.602;11.904;2023-04-06T16:05:05;7.97;;;5.10;;
62574;SDS011;53112;45.602;11.904;2023-04-06T16:07:31;7.68;;;5.00;;
62574;SDS011;53112;45.602;11.904;2023-04-06T16:09:58;7.18;;;4.43;;
62574;SDS011;53112;45.602;11.904;2023-04-06T16:12:24;7.90;;;5.00;;
62574;SDS011;53112;45.602;11.904;2023-04-06T16:14:50;6.78;;;4.40;;
62574;SDS011;53112;45.602;11.904;2023-04-06T16:17:16;7.25;;;4.63;;
62574;SDS011;53112;45.602;11.904;2023-04-06T16:19:42;8.70;;;4.78;;